Time;durP1;ratioP1;P1;durP2;ratioP2;P2;SDS_P1;SDS_P2;PMS_P1;PMS_P2;Temp;Humidity;BMP_temperature;BMP_pressure;BME280_temperature;BME280_humidity;BME280_pressure;Samples;Min_cycle;Max_cycle;Signal;HPM_P1;HPM_P2
2022/09/16 00:00:19;;;;;;;2.8;2.2;;;;;;;;;;;;;
2022/09/16 00:02:44;;;;;;;2.3;2.1;;;;;;;;;;;;;
2022/09/16 00:05:13;;;;;;;3.6;2.6;;;;;;;;;;;;;
2022/09/16 00:07:41;;;;;;;3.5;2.3;;;;;;;;;;;;;
2022/09/16 00:10:06;;;;;;;3.2;2.6;;;;;;;;;;;;;
2022/09/16 00:12:32;;;;;;;3;2.7;;;;;;;;;;;;;
2022/09/16 00:14:57;;;;;;;3.6;2.7;;;;;;;;;;;;;
2022/09/16 00:17:22;;;;;;;4.5;2.7;;;;;;;;;;;;;
2022/09/16 00:19:48;;;;;;;3.1;2.7;;;;;;;;;;;;;
2022/09/16 00:22:13;;;;;;;7.9;3.2;;;;;;;;;;;;;
2022/09/16 00:24:39;;;;;;;3;2.7;;;;;;;;;;;;;
2022/09/16 00:27:03;;;;;;;3.2;2.9;;;;;;;;;;;;;
2022/09/16 00:29:29;;;;;;;3.5;3;;;;;;;;;;;;;
2022/09/16 00:31:54;;;;;;;4.8;2.9;;;;;;;;;;;;;
2022/09/16 00:34:19;;;;;;;4.7;3.2;;;;;;;;;;;;;
2022/09/16 00:36:45;;;;;;;3.2;2.9;;;;;;;;;;;;;
2022/09/16 00:39:10;;;;;;;3.7;2.9;;;;;;;;;;;;;
2022/09/16 00:41:36;;;;;;;3;2.7;;;;;;;;;;;;;
2022/09/16 00:44:01;;;;;;;3;2.6;;;;;;;;;;;;;
2022/09/16 00:46:27;;;;;;;3.6;2.7;;;;;;;;;;;;;
2022/09/16 00:48:52;;;;;;;2.9;2.7;;;;;;;;;;;;;
2022/09/16 00:51:17;;;;;;;4.7;3.1;;;;;;;;;;;;;
2022/09/16 00:53:42;;;;;;;2.6;2.4;;;;;;;;;;;;;
2022/09/16 00:56:08;;;;;;;2.7;2.4;;;;;;;;;;;;;
2022/09/16 00:58:32;;;;;;;3;2.3;;;;;;;;;;;;;
2022/09/16 01:00:58;;;;;;;3.1;2.8;;;;;;;;;;;;;
2022/09/16 01:03:23;;;;;;;3;2.4;;;;;;;;;;;;;
2022/09/16 01:05:49;;;;;;;3.2;2.6;;;;;;;;;;;;;
2022/09/16 01:08:14;;;;;;;4.1;3.1;;;;;;;;;;;;;
2022/09/16 01:10:39;;;;;;;3.9;2.7;;;;;;;;;;;;;
2022/09/16 01:13:04;;;;;;;5;3;;;;;;;;;;;;;
2022/09/16 01:15:29;;;;;;;3.8;2.5;;;;;;;;;;;;;
2022/09/16 01:17:54;;;;;;;2.8;2.6;;;;;;;;;;;;;
2022/09/16 01:20:19;;;;;;;2.9;2.7;;;;;;;;;;;;;
2022/09/16 01:22:47;;;;;;;3.7;2.3;;;;;;;;;;;;;
2022/09/16 01:25:13;;;;;;;2.9;2.7;;;;;;;;;;;;;
2022/09/16 01:27:39;;;;;;;3;2.5;;;;;;;;;;;;;
2022/09/16 01:30:08;;;;;;;2.5;2.3;;;;;;;;;;;;;
2022/09/16 01:32:33;;;;;;;4.1;2.3;;;;;;;;;;;;;
2022/09/16 01:35:01;;;;;;;2.5;2.3;;;;;;;;;;;;;
2022/09/16 01:37:25;;;;;;;2.8;2.5;;;;;;;;;;;;;
2022/09/16 01:39:50;;;;;;;3.2;2.9;;;;;;;;;;;;;
2022/09/16 01:42:17;;;;;;;3.8;2.5;;;;;;;;;;;;;
2022/09/16 01:44:44;;;;;;;3;2.6;;;;;;;;;;;;;
2022/09/16 01:47:07;;;;;;;3.7;2.4;;;;;;;;;;;;;
2022/09/16 01:49:35;;;;;;;2.5;2.3;;;;;;;;;;;;;
2022/09/16 01:52:01;;;;;;;2.5;2.3;;;;;;;;;;;;;
2022/09/16 01:54:26;;;;;;;3.1;2.4;;;;;;;;;;;;;
2022/09/16 01:56:51;;;;;;;2.9;2.3;;;;;;;;;;;;;
2022/09/16 01:59:17;;;;;;;2.7;2.5;;;;;;;;;;;;;
2022/09/16 02:01:42;;;;;;;2.6;2.4;;;;;;;;;;;;;
2022/09/16 02:04:07;;;;;;;2.5;2.3;;;;;;;;;;;;;
2022/09/16 02:06:32;;;;;;;2.7;2.5;;;;;;;;;;;;;
2022/09/16 02:08:57;;;;;;;2.9;2.6;;;;;;;;;;;;;
2022/09/16 02:11:24;;;;;;;3.6;2.6;;;;;;;;;;;;;
2022/09/16 02:13:49;;;;;;;2.4;2.2;;;;;;;;;;;;;
2022/09/16 02:16:18;;;;;;;3.3;2.4;;;;;;;;;;;;;
2022/09/16 02:18:46;;;;;;;4.6;2.9;;;;;;;;;;;;;
2022/09/16 02:21:11;;;;;;;3.6;2.7;;;;;;;;;;;;;
2022/09/16 02:23:38;;;;;;;2.8;2.6;;;;;;;;;;;;;
2022/09/16 02:26:02;;;;;;;4.4;2.7;;;;;;;;;;;;;
2022/09/16 02:28:27;;;;;;;4.5;2.3;;;;;;;;;;;;;
2022/09/16 02:30:54;;;;;;;2.7;2.5;;;;;;;;;;;;;
2022/09/16 02:33:20;;;;;;;4.5;2.6;;;;;;;;;;;;;
2022/09/16 02:35:47;;;;;;;2.4;2.2;;;;;;;;;;;;;
2022/09/16 02:38:12;;;;;;;3.3;2.5;;;;;;;;;;;;;
2022/09/16 02:40:37;;;;;;;3.6;2.3;;;;;;;;;;;;;
2022/09/16 02:43:02;;;;;;;2.9;2.4;;;;;;;;;;;;;
2022/09/16 02:45:30;;;;;;;2.7;2.3;;;;;;;;;;;;;
2022/09/16 02:47:55;;;;;;;3;2.5;;;;;;;;;;;;;
2022/09/16 02:50:20;;;;;;;4.3;2.6;;;;;;;;;;;;;
2022/09/16 02:52:46;;;;;;;8.6;3.1;;;;;;;;;;;;;
2022/09/16 02:55:11;;;;;;;3.6;2.9;;;;;;;;;;;;;
2022/09/16 02:57:37;;;;;;;4.7;3;;;;;;;;;;;;;
2022/09/16 03:00:02;;;;;;;4;3;;;;;;;;;;;;;
2022/09/16 03:02:27;;;;;;;3.5;3.2;;;;;;;;;;;;;
2022/09/16 03:04:53;;;;;;;4.5;3.2;;;;;;;;;;;;;
2022/09/16 03:07:18;;;;;;;4.2;2.9;;;;;;;;;;;;;
2022/09/16 03:09:43;;;;;;;3.6;3.1;;;;;;;;;;;;;
2022/09/16 03:12:09;;;;;;;3.3;2.9;;;;;;;;;;;;;
2022/09/16 03:14:35;;;;;;;2.6;2.4;;;;;;;;;;;;;
2022/09/16 03:16:59;;;;;;;3;2.8;;;;;;;;;;;;;
2022/09/16 03:19:24;;;;;;;2.7;2.5;;;;;;;;;;;;;
2022/09/16 03:21:49;;;;;;;3.5;2.9;;;;;;;;;;;;;
2022/09/16 03:24:15;;;;;;;3.4;2.5;;;;;;;;;;;;;
2022/09/16 03:26:40;;;;;;;2.8;2.4;;;;;;;;;;;;;
2022/09/16 03:29:05;;;;;;;3.8;2.6;;;;;;;;;;;;;
2022/09/16 03:31:30;;;;;;;2.6;2.4;;;;;;;;;;;;;
2022/09/16 03:33:55;;;;;;;3.6;2.6;;;;;;;;;;;;;
2022/09/16 03:36:20;;;;;;;3.1;2.5;;;;;;;;;;;;;
2022/09/16 03:38:45;;;;;;;3.1;2.4;;;;;;;;;;;;;
2022/09/16 03:41:10;;;;;;;3;2.7;;;;;;;;;;;;;
2022/09/16 03:43:36;;;;;;;2.9;2.5;;;;;;;;;;;;;
2022/09/16 03:46:02;;;;;;;2.6;2.4;;;;;;;;;;;;;
2022/09/16 03:48:27;;;;;;;3.7;3;;;;;;;;;;;;;
2022/09/16 03:50:53;;;;;;;3.9;2.8;;;;;;;;;;;;;
2022/09/16 03:53:18;;;;;;;3;2.7;;;;;;;;;;;;;
2022/09/16 03:55:45;;;;;;;3.3;2.8;;;;;;;;;;;;;
2022/09/16 03:58:10;;;;;;;2.6;2.4;;;;;;;;;;;;;
2022/09/16 04:02:41;;;;;;;3.4;2.7;;;;;;;14.87;92.9707;931.8561;;;;
2022/09/16 04:05:15;;;;;;;3.5;2.5;;;;;;;14.87;93.5;931.7936;;;;
2022/09/16 04:07:44;;;;;;;3.1;2.6;;;;;;;14.83;93.74902;931.8672;;;;
2022/09/16 04:13:41;;;;;;;2.8;2.5;;;;;;;14.6;95.55273;931.8848;;;;
2022/09/16 04:16:07;;;;;;;3.2;2.9;;;;;;;14.61;95.54297;931.8591;;;;
2022/09/16 04:18:36;;;;;;;3.3;3;;;;;;;14.66;95.00195;931.8538;;;;
2022/09/16 04:21:02;;;;;;;3.2;2.9;;;;;;;14.69;94.88086;931.8837;;;;
2022/09/16 04:23:27;;;;;;;4.6;3.2;;;;;;;14.76;94.9082;931.8753;;;;
2022/09/16 04:25:52;;;;;;;4.4;2.9;;;;;;;14.71;95.15137;931.8408;;;;
2022/09/16 04:28:24;;;;;;;3.6;3.2;;;;;;;14.68;95.53613;931.8365;;;;
2022/09/16 04:30:52;;;;;;;3.7;3.2;;;;;;;14.61;95.42773;931.7469;;;;
2022/09/16 04:33:17;;;;;;;4.5;3.6;;;;;;;14.64;95.11133;931.8084;;;;
2022/09/16 04:35:46;;;;;;;5.3;3.4;;;;;;;14.7;95.36914;931.8345;;;;
2022/09/16 04:38:11;;;;;;;5.9;3.3;;;;;;;14.74;94.98438;931.8636;;;;
2022/09/16 04:40:37;;;;;;;5;3.7;;;;;;;14.65;95.12598;931.8275;;;;
2022/09/16 04:43:02;;;;;;;6.1;4.5;;;;;;;14.71;95.62207;931.8658;;;;
2022/09/16 04:45:35;;;;;;;4.5;4.1;;;;;;;14.76;94.96582;931.8303;;;;
2022/09/16 04:48:03;;;;;;;4.3;3.4;;;;;;;14.8;94.57031;931.8346;;;;
2022/09/16 04:50:28;;;;;;;4.3;3.6;;;;;;;14.82;94.37988;931.8705;;;;
2022/09/16 04:52:59;;;;;;;6.4;5.3;;;;;;;14.76;94.49316;931.8953;;;;
2022/09/16 04:55:23;;;;;;;7.6;4.9;;;;;;;14.8;94.58105;931.9436;;;;
2022/09/16 04:57:48;;;;;;;5.9;4;;;;;;;14.82;94.63379;931.9099;;;;
2022/09/16 05:00:17;;;;;;;3.9;3;;;;;;;14.91;93.98438;931.9442;;;;
2022/09/16 05:02:48;;;;;;;3.1;2.7;;;;;;;14.87;94.13379;931.9716;;;;
2022/09/16 05:05:16;;;;;;;3.8;3.2;;;;;;;14.83;94.01465;931.9537;;;;
2022/09/16 05:07:39;;;;;;;3.4;3.1;;;;;;;14.83;94.23145;931.9458;;;;
2022/09/16 05:10:04;;;;;;;6.4;4.6;;;;;;;14.83;94.37207;931.9777;;;;
2022/09/16 05:12:32;;;;;;;4.9;3.1;;;;;;;14.77;93.97559;931.8984;;;;
2022/09/16 05:15:02;;;;;;;4.1;3;;;;;;;14.63;93.93555;931.8638;;;;
2022/09/16 05:17:27;;;;;;;3.5;2.9;;;;;;;14.72;94.4375;931.856;;;;
2022/09/16 05:19:53;;;;;;;5;3.9;;;;;;;14.75;95.22852;931.8281;;;;
2022/09/16 05:22:18;;;;;;;3.9;3.4;;;;;;;14.81;95.08105;931.8488;;;;
2022/09/16 05:24:49;;;;;;;4.2;3.6;;;;;;;14.82;94.80664;931.8281;;;;
2022/09/16 05:27:19;;;;;;;3.7;2.9;;;;;;;14.91;93.74219;931.748;;;;
2022/09/16 05:29:44;;;;;;;2.6;2.4;;;;;;;14.99;92.50195;931.6831;;;;
2022/09/16 05:32:11;;;;;;;3;2.4;;;;;;;14.99;92.0293;931.6655;;;;
2022/09/16 05:34:36;;;;;;;3.8;2.7;;;;;;;14.95;91.94824;931.7145;;;;
2022/09/16 05:37:06;;;;;;;3.9;3.2;;;;;;;14.94;92.09863;931.7249;;;;
2022/09/16 05:39:32;;;;;;;5.8;3.1;;;;;;;14.94;92.31738;931.6945;;;;
2022/09/16 05:42:06;;;;;;;4;2.4;;;;;;;14.94;92.62891;931.7634;;;;
2022/09/16 05:44:34;;;;;;;3.4;2.8;;;;;;;15;92.12109;931.7375;;;;
2022/09/16 05:46:59;;;;;;;4.5;2.8;;;;;;;14.98;91.73828;931.6849;;;;
2022/09/16 05:49:26;;;;;;;3.2;2.9;;;;;;;14.86;92.05859;931.7329;;;;
2022/09/16 05:51:51;;;;;;;3.4;3.1;;;;;;;14.83;92.21387;931.7037;;;;
2022/09/16 05:54:53;;;;;;;3.7;3;;;;;;;14.87;92.25586;931.7062;;;;
2022/09/16 05:57:13;;;;;;;3.2;2.9;;;;;;;14.83;92.3291;931.6652;;;;
2022/09/16 05:59:40;;;;;;;3.3;3;;;;;;;14.83;92.23926;931.6588;;;;
2022/09/16 06:02:05;;;;;;;3.6;3.2;;;;;;;14.84;92.75781;931.6465;;;;
2022/09/16 06:04:31;;;;;;;5.3;2.9;;;;;;;14.81;93.39746;931.6124;;;;
2022/09/16 06:06:56;;;;;;;4.9;4.1;;;;;;;14.94;93.43652;931.6127;;;;
2022/09/16 06:09:21;;;;;;;6;4.1;;;;;;;15.02;93.64941;931.6019;;;;
2022/09/16 06:11:50;;;;;;;3.8;3.3;;;;;;;15.07;93.14063;931.6379;;;;
2022/09/16 06:14:15;;;;;;;3.1;2.8;;;;;;;15.18;92.58594;931.6767;;;;
2022/09/16 06:16:40;;;;;;;3.5;3.2;;;;;;;15.3;92.58789;931.6235;;;;
2022/09/16 06:19:09;;;;;;;3.9;3.1;;;;;;;15.35;91.56055;931.6016;;;;
2022/09/16 06:21:33;;;;;;;4.4;3.4;;;;;;;15.42;91.44824;931.5914;;;;
2022/09/16 06:24:02;;;;;;;3.4;3.1;;;;;;;15.51;90.77441;931.5803;;;;
2022/09/16 06:26:27;;;;;;;4.1;3.2;;;;;;;15.47;89.93555;931.545;;;;
2022/09/16 06:28:54;;;;;;;3.3;3;;;;;;;15.51;89.48145;931.5641;;;;
2022/09/16 06:31:19;;;;;;;3.7;3.1;;;;;;;15.62;89.03125;931.601;;;;
2022/09/16 06:33:45;;;;;;;3.9;3;;;;;;;15.69;88.63965;931.5715;;;;
2022/09/16 06:36:10;;;;;;;4.4;3.2;;;;;;;15.67;87.93164;931.6345;;;;
2022/09/16 06:38:40;;;;;;;3.7;3.3;;;;;;;15.71;87.45313;931.5895;;;;
2022/09/16 06:41:05;;;;;;;3.7;3.3;;;;;;;15.76;87.90332;931.505;;;;
2022/09/16 06:43:35;;;;;;;3.3;2.9;;;;;;;15.86;87.47266;931.5089;;;;
2022/09/16 06:46:04;;;;;;;3.3;3;;;;;;;15.8;86.42188;931.4109;;;;
2022/09/16 06:48:29;;;;;;;3.4;2.9;;;;;;;15.9;86.39551;931.4508;;;;
2022/09/16 06:50:56;;;;;;;3.1;2.8;;;;;;;16.01;85.81348;931.4155;;;;
2022/09/16 06:53:21;;;;;;;3.4;2.5;;;;;;;16.04;86.94238;931.4593;;;;
2022/09/16 06:55:50;;;;;;;3.5;2.7;;;;;;;16.11;86.22754;931.4882;;;;
2022/09/16 06:58:16;;;;;;;3.8;2.5;;;;;;;16.12;84.81836;931.4244;;;;
2022/09/16 07:00:46;;;;;;;2.9;2.5;;;;;;;16.33;85.24121;931.3613;;;;
2022/09/16 07:03:18;;;;;;;2.6;2.1;;;;;;;16.67;84.06836;931.3481;;;;
2022/09/16 07:05:48;;;;;;;2.9;2.3;;;;;;;17.05;82.21777;931.3398;;;;
2022/09/16 07:08:17;;;;;;;3;2.1;;;;;;;17.4;79.77637;931.2833;;;;
2022/09/16 07:10:48;;;;;;;2.4;2.1;;;;;;;17.51;79.75098;931.2957;;;;
2022/09/16 07:13:18;;;;;;;2.5;2.2;;;;;;;17.36;77.95996;931.2578;;;;
2022/09/16 07:15:52;;;;;;;2.3;2.1;;;;;;;17.21;79.06934;931.3027;;;;
2022/09/16 07:18:21;;;;;;;2.4;2;;;;;;;17.03;79.09473;931.3002;;;;
2022/09/16 07:20:51;;;;;;;2.2;1.9;;;;;;;16.99;79.23926;931.194;;;;
2022/09/16 07:23:16;;;;;;;2.7;2.2;;;;;;;16.88;79.68066;931.287;;;;
2022/09/16 07:25:42;;;;;;;3.3;2.1;;;;;;;16.8;80.21289;931.3569;;;;
2022/09/16 07:28:07;;;;;;;2.8;2.2;;;;;;;16.67;80.81445;931.3329;;;;
2022/09/16 07:30:33;;;;;;;2.8;2.3;;;;;;;16.58;82.36133;931.3763;;;;
2022/09/16 07:32:58;;;;;;;2.8;2.5;;;;;;;16.76;82.89258;931.485;;;;
2022/09/16 07:35:28;;;;;;;3;2.4;;;;;;;16.84;81.39063;931.5147;;;;
2022/09/16 07:37:53;;;;;;;2.7;2.5;;;;;;;16.53;83.44824;931.4509;;;;
2022/09/16 07:40:19;;;;;;;4.1;2.6;;;;;;;16.55;83.90723;931.451;;;;
2022/09/16 07:42:44;;;;;;;3.6;2.5;;;;;;;;;;;;;
2022/09/16 07:45:10;;;;;;;2.8;2.6;;;;;;;;;;;;;
2022/09/16 07:47:35;;;;;;;3.9;2.5;;;;;;;;;;;;;
2022/09/16 07:50:00;;;;;;;2.7;2.3;;;;;;;;;;;;;
2022/09/16 07:52:28;;;;;;;2.4;2.2;;;;;;;;;;;;;
2022/09/16 07:54:50;;;;;;;3;2.2;;;;;;;;;;;;;
2022/09/16 07:57:16;;;;;;;2.7;2;;;;;;;;;;;;;
2022/09/16 07:59:40;;;;;;;2.6;2;;;;;;;;;;;;;
2022/09/16 08:02:07;;;;;;;2.8;1.9;;;;;;;;;;;;;
2022/09/16 08:04:32;;;;;;;2.6;1.9;;;;;;;;;;;;;
2022/09/16 08:06:58;;;;;;;1.7;1.6;;;;;;;;;;;;;
2022/09/16 08:09:23;;;;;;;2.2;1.5;;;;;;;;;;;;;
2022/09/16 08:11:48;;;;;;;1.6;1.4;;;;;;;;;;;;;
2022/09/16 08:14:13;;;;;;;3.1;1.5;;;;;;;;;;;;;
2022/09/16 08:16:39;;;;;;;1.4;1.3;;;;;;;;;;;;;
2022/09/16 08:19:04;;;;;;;2.2;1.5;;;;;;;;;;;;;
2022/09/16 08:21:30;;;;;;;1.7;1.5;;;;;;;;;;;;;
2022/09/16 08:23:55;;;;;;;1.8;1.4;;;;;;;;;;;;;
2022/09/16 08:26:22;;;;;;;2.4;1.7;;;;;;;;;;;;;
2022/09/16 08:28:47;;;;;;;2;1.8;;;;;;;;;;;;;
2022/09/16 08:31:12;;;;;;;2.2;2;;;;;;;;;;;;;
2022/09/16 08:33:37;;;;;;;2;1.8;;;;;;;;;;;;;
2022/09/16 08:36:04;;;;;;;1.9;1.6;;;;;;;;;;;;;
2022/09/16 08:38:29;;;;;;;2.4;1.6;;;;;;;;;;;;;
2022/09/16 08:40:56;;;;;;;1.9;1.7;;;;;;;;;;;;;
2022/09/16 08:43:23;;;;;;;1.8;1.7;;;;;;;;;;;;;
2022/09/16 08:45:50;;;;;;;1.5;1.4;;;;;;;;;;;;;
2022/09/16 08:48:16;;;;;;;3.2;1.5;;;;;;;;;;;;;
2022/09/16 08:50:41;;;;;;;2.4;1.8;;;;;;;;;;;;;
2022/09/16 08:53:09;;;;;;;1.9;1.8;;;;;;;;;;;;;
2022/09/16 08:55:34;;;;;;;2.2;1.9;;;;;;;;;;;;;
2022/09/16 08:58:01;;;;;;;2;1.8;;;;;;;;;;;;;
2022/09/16 09:00:26;;;;;;;2.7;1.9;;;;;;;;;;;;;
2022/09/16 09:02:53;;;;;;;1.8;1.6;;;;;;;;;;;;;
2022/09/16 09:05:22;;;;;;;2.7;2.1;;;;;;;;;;;;;
2022/09/16 09:07:47;;;;;;;2.3;2;;;;;;;;;;;;;
2022/09/16 09:10:13;;;;;;;3.3;1.8;;;;;;;;;;;;;
2022/09/16 09:12:37;;;;;;;2.1;1.9;;;;;;;;;;;;;
2022/09/16 09:15:03;;;;;;;1.6;1.5;;;;;;;;;;;;;
2022/09/16 09:17:28;;;;;;;2.5;1.8;;;;;;;;;;;;;
2022/09/16 09:19:53;;;;;;;2.2;1.8;;;;;;;;;;;;;
2022/09/16 09:22:18;;;;;;;1.9;1.7;;;;;;;;;;;;;
2022/09/16 09:24:43;;;;;;;2.8;1.8;;;;;;;;;;;;;
2022/09/16 09:27:08;;;;;;;1.9;1.4;;;;;;;;;;;;;
2022/09/16 09:29:34;;;;;;;1.5;1.4;;;;;;;;;;;;;
2022/09/16 09:31:59;;;;;;;1.3;1.2;;;;;;;;;;;;;
2022/09/16 09:34:24;;;;;;;2.7;1.4;;;;;;;;;;;;;
2022/09/16 09:36:49;;;;;;;1.5;1.4;;;;;;;;;;;;;
2022/09/16 09:39:15;;;;;;;1.7;1.6;;;;;;;;;;;;;
2022/09/16 09:41:39;;;;;;;2.5;1.7;;;;;;;;;;;;;
2022/09/16 09:44:04;;;;;;;1.7;1.6;;;;;;;;;;;;;
2022/09/16 09:46:30;;;;;;;1.6;1.5;;;;;;;;;;;;;
2022/09/16 09:48:56;;;;;;;1.6;1.5;;;;;;;;;;;;;
2022/09/16 09:51:21;;;;;;;2.5;1.5;;;;;;;;;;;;;
2022/09/16 09:53:47;;;;;;;1.9;1.6;;;;;;;;;;;;;
2022/09/16 09:56:11;;;;;;;1.9;1.6;;;;;;;;;;;;;
2022/09/16 09:58:37;;;;;;;2.4;1.7;;;;;;;;;;;;;
2022/09/16 10:01:04;;;;;;;1.8;1.6;;;;;;;;;;;;;
2022/09/16 10:03:29;;;;;;;3.1;1.6;;;;;;;;;;;;;
2022/09/16 10:05:54;;;;;;;1.8;1.7;;;;;;;;;;;;;
2022/09/16 10:08:19;;;;;;;2.4;1.7;;;;;;;;;;;;;
2022/09/16 10:10:45;;;;;;;2.1;1.9;;;;;;;;;;;;;
2022/09/16 10:13:11;;;;;;;1.8;1.7;;;;;;;;;;;;;
2022/09/16 10:15:36;;;;;;;2.1;1.8;;;;;;;;;;;;;
2022/09/16 10:18:03;;;;;;;3.6;2;;;;;;;;;;;;;
2022/09/16 10:20:27;;;;;;;3.4;1.9;;;;;;;;;;;;;
2022/09/16 10:22:52;;;;;;;2.9;1.8;;;;;;;;;;;;;
2022/09/16 10:25:19;;;;;;;2.7;1.9;;;;;;;;;;;;;
2022/09/16 10:27:44;;;;;;;2.3;1.7;;;;;;;;;;;;;
2022/09/16 10:30:17;;;;;;;2.2;2;;;;;;;;;;;;;
2022/09/16 10:32:42;;;;;;;2.3;2.1;;;;;;;;;;;;;
2022/09/16 10:35:12;;;;;;;2.4;1.9;;;;;;;;;;;;;
2022/09/16 10:37:37;;;;;;;2.3;2.1;;;;;;;;;;;;;
2022/09/16 10:40:05;;;;;;;3.6;1.9;;;;;;;;;;;;;
2022/09/16 10:42:27;;;;;;;2.2;2;;;;;;;;;;;;;
2022/09/16 10:44:53;;;;;;;2.4;1.7;;;;;;;;;;;;;
2022/09/16 10:47:18;;;;;;;1.9;1.8;;;;;;;;;;;;;
2022/09/16 10:49:45;;;;;;;2.4;1.9;;;;;;;;;;;;;
2022/09/16 10:52:10;;;;;;;2.1;1.7;;;;;;;;;;;;;
2022/09/16 10:54:35;;;;;;;3.1;2.1;;;;;;;;;;;;;
2022/09/16 10:57:00;;;;;;;3.7;1.9;;;;;;;;;;;;;
2022/09/16 10:59:25;;;;;;;3.6;1.7;;;;;;;;;;;;;
2022/09/16 11:01:50;;;;;;;2.8;2.2;;;;;;;;;;;;;
2022/09/16 11:04:15;;;;;;;2.7;2;;;;;;;;;;;;;
2022/09/16 11:06:41;;;;;;;2.2;2;;;;;;;;;;;;;
2022/09/16 11:09:05;;;;;;;2.4;1.9;;;;;;;;;;;;;
2022/09/16 11:11:31;;;;;;;3.2;2;;;;;;;;;;;;;
2022/09/16 11:13:56;;;;;;;3;2.2;;;;;;;;;;;;;
2022/09/16 11:16:21;;;;;;;2.4;1.8;;;;;;;;;;;;;
2022/09/16 11:18:46;;;;;;;2.8;2;;;;;;;;;;;;;
2022/09/16 11:21:11;;;;;;;2.6;2;;;;;;;;;;;;;
2022/09/16 11:23:36;;;;;;;3.1;2.1;;;;;;;;;;;;;
2022/09/16 11:26:02;;;;;;;2.3;2.1;;;;;;;;;;;;;
2022/09/16 11:28:27;;;;;;;2.3;2.1;;;;;;;;;;;;;
2022/09/16 11:30:53;;;;;;;2.2;2;;;;;;;;;;;;;
2022/09/16 11:35:16;;;;;;;2.1;1.8;;;;;;;;;;;;;
2022/09/16 11:37:39;;;;;;;1.8;1.7;;;;;;;;;;;;;
2022/09/16 11:40:05;;;;;;;3.3;1.9;;;;;;;;;;;;;
2022/09/16 11:42:29;;;;;;;3.6;1.8;;;;;;;;;;;;;
2022/09/16 11:44:55;;;;;;;2;1.8;;;;;;;;;;;;;
2022/09/16 11:47:20;;;;;;;1.9;1.7;;;;;;;;;;;;;
2022/09/16 11:49:47;;;;;;;1.7;1.6;;;;;;;;;;;;;
2022/09/16 11:52:12;;;;;;;2.2;1.8;;;;;;;;;;;;;
2022/09/16 11:54:37;;;;;;;1.9;1.6;;;;;;;;;;;;;
2022/09/16 11:57:02;;;;;;;4.6;2;;;;;;;;;;;;;
2022/09/16 11:59:27;;;;;;;3.8;1.9;;;;;;;;;;;;;
2022/09/16 12:01:52;;;;;;;2.3;1.8;;;;;;;;;;;;;
2022/09/16 12:04:17;;;;;;;2.6;1.9;;;;;;;;;;;;;
2022/09/16 12:06:44;;;;;;;2;1.8;;;;;;;;;;;;;
2022/09/16 12:09:09;;;;;;;2.2;1.8;;;;;;;;;;;;;
2022/09/16 12:11:35;;;;;;;2.1;1.7;;;;;;;;;;;;;
2022/09/16 12:14:00;;;;;;;2.3;1.9;;;;;;;;;;;;;
2022/09/16 12:16:25;;;;;;;2.2;1.8;;;;;;;;;;;;;
2022/09/16 12:18:50;;;;;;;3.7;2;;;;;;;;;;;;;
2022/09/16 12:21:15;;;;;;;2.1;1.9;;;;;;;;;;;;;
2022/09/16 12:23:40;;;;;;;2.6;1.9;;;;;;;;;;;;;
2022/09/16 12:26:07;;;;;;;2;1.9;;;;;;;;;;;;;
2022/09/16 12:28:32;;;;;;;2.1;1.9;;;;;;;;;;;;;
2022/09/16 12:30:57;;;;;;;2.8;1.9;;;;;;;;;;;;;
2022/09/16 12:33:22;;;;;;;2.2;1.5;;;;;;;;;;;;;
2022/09/16 12:35:47;;;;;;;1.8;1.7;;;;;;;;;;;;;
2022/09/16 12:38:12;;;;;;;2.4;1.7;;;;;;;;;;;;;
2022/09/16 12:40:39;;;;;;;2.9;1.9;;;;;;;;;;;;;
2022/09/16 12:43:04;;;;;;;2.8;1.8;;;;;;;;;;;;;
2022/09/16 12:45:30;;;;;;;4.2;2.1;;;;;;;;;;;;;
2022/09/16 12:47:55;;;;;;;2.1;1.9;;;;;;;;;;;;;
2022/09/16 12:50:20;;;;;;;1.9;1.7;;;;;;;;;;;;;
2022/09/16 12:52:47;;;;;;;1.9;1.8;;;;;;;;;;;;;
2022/09/16 12:55:12;;;;;;;2.2;2;;;;;;;;;;;;;
2022/09/16 12:57:39;;;;;;;2.2;1.9;;;;;;;;;;;;;
2022/09/16 13:00:04;;;;;;;4.1;1.7;;;;;;;;;;;;;
2022/09/16 13:02:33;;;;;;;2.4;1.5;;;;;;;;;;;;;
2022/09/16 13:04:58;;;;;;;1.4;1.3;;;;;;;;;;;;;
2022/09/16 13:07:23;;;;;;;1.3;1.1;;;;;;;;;;;;;
2022/09/16 13:09:48;;;;;;;3.2;1.3;;;;;;;;;;;;;
2022/09/16 13:12:14;;;;;;;1.3;0.9;;;;;;;;;;;;;
2022/09/16 13:14:39;;;;;;;3;1.4;;;;;;;;;;;;;
2022/09/16 13:17:05;;;;;;;0.7;0.7;;;;;;;;;;;;;
2022/09/16 13:19:33;;;;;;;0.7;0.6;;;;;;;;;;;;;
2022/09/16 13:21:58;;;;;;;2.1;1;;;;;;;;;;;;;
2022/09/16 13:24:23;;;;;;;0.6;0.6;;;;;;;;;;;;;
2022/09/16 13:26:49;;;;;;;0.8;0.8;;;;;;;;;;;;;
2022/09/16 13:29:14;;;;;;;0.9;0.6;;;;;;;;;;;;;
2022/09/16 13:31:39;;;;;;;0.5;0.5;;;;;;;;;;;;;
2022/09/16 13:34:05;;;;;;;0.6;0.6;;;;;;;;;;;;;
2022/09/16 13:36:30;;;;;;;1.1;0.8;;;;;;;;;;;;;
2022/09/16 13:38:55;;;;;;;0.7;0.7;;;;;;;;;;;;;
2022/09/16 13:41:22;;;;;;;0.7;0.7;;;;;;;;;;;;;
2022/09/16 13:43:47;;;;;;;1;0.9;;;;;;;;;;;;;
2022/09/16 13:46:14;;;;;;;0.7;0.7;;;;;;;;;;;;;
2022/09/16 13:48:37;;;;;;;0.7;0.7;;;;;;;;;;;;;
2022/09/16 13:51:03;;;;;;;0.7;0.7;;;;;;;;;;;;;
2022/09/16 13:53:28;;;;;;;0.7;0.7;;;;;;;;;;;;;
2022/09/16 13:55:54;;;;;;;1.2;0.8;;;;;;;;;;;;;
2022/09/16 13:58:19;;;;;;;0.7;0.7;;;;;;;;;;;;;
2022/09/16 14:00:47;;;;;;;0.8;0.8;;;;;;;;;;;;;
2022/09/16 14:03:12;;;;;;;0.8;0.8;;;;;;;;;;;;;
2022/09/16 14:05:38;;;;;;;0.9;0.8;;;;;;;;;;;;;
2022/09/16 14:08:03;;;;;;;0.9;0.9;;;;;;;;;;;;;
2022/09/16 14:10:27;;;;;;;0.7;0.7;;;;;;;;;;;;;
2022/09/16 14:12:54;;;;;;;0.8;0.8;;;;;;;;;;;;;
2022/09/16 14:15:19;;;;;;;0.7;0.7;;;;;;;;;;;;;
2022/09/16 14:17:44;;;;;;;1.3;0.7;;;;;;;;;;;;;
2022/09/16 14:20:10;;;;;;;1;0.8;;;;;;;;;;;;;
2022/09/16 14:22:36;;;;;;;1.2;0.9;;;;;;;;;;;;;
2022/09/16 14:25:01;;;;;;;0.8;0.8;;;;;;;;;;;;;
2022/09/16 14:27:26;;;;;;;0.7;0.7;;;;;;;;;;;;;
2022/09/16 14:29:51;;;;;;;0.8;0.7;;;;;;;;;;;;;
2022/09/16 14:32:16;;;;;;;1;0.7;;;;;;;;;;;;;
2022/09/16 14:34:43;;;;;;;0.7;0.7;;;;;;;;;;;;;
2022/09/16 14:37:08;;;;;;;0.9;0.8;;;;;;;;;;;;;
2022/09/16 14:39:34;;;;;;;0.7;0.7;;;;;;;;;;;;;
2022/09/16 14:42:02;;;;;;;0.6;0.6;;;;;;;;;;;;;
2022/09/16 14:44:25;;;;;;;1;0.5;;;;;;;;;;;;;
2022/09/16 14:46:50;;;;;;;0.4;0.4;;;;;;;;;;;;;
2022/09/16 14:49:15;;;;;;;0.8;0.6;;;;;;;;;;;;;
2022/09/16 14:51:41;;;;;;;0.7;0.7;;;;;;;;;;;;;
2022/09/16 14:54:06;;;;;;;0.7;0.6;;;;;;;;;;;;;
2022/09/16 14:56:31;;;;;;;1.1;0.8;;;;;;;;;;;;;
2022/09/16 14:58:56;;;;;;;0.9;0.9;;;;;;;;;;;;;
2022/09/16 15:01:22;;;;;;;0.8;0.8;;;;;;;;;;;;;
2022/09/16 15:03:47;;;;;;;1.6;1;;;;;;;;;;;;;
2022/09/16 15:06:13;;;;;;;1.3;1.2;;;;;;;;;;;;;
2022/09/16 15:08:38;;;;;;;1.8;1.3;;;;;;;;;;;;;
2022/09/16 15:11:04;;;;;;;1.4;1.3;;;;;;;;;;;;;
2022/09/16 15:13:29;;;;;;;1.5;1.3;;;;;;;;;;;;;
2022/09/16 15:15:57;;;;;;;1.4;1.3;;;;;;;;;;;;;
2022/09/16 15:18:23;;;;;;;1.3;1.2;;;;;;;;;;;;;
2022/09/16 15:20:48;;;;;;;1.7;1.4;;;;;;;;;;;;;
2022/09/16 15:23:13;;;;;;;1.5;1.1;;;;;;;;;;;;;
2022/09/16 15:25:39;;;;;;;1.3;1.2;;;;;;;;;;;;;
2022/09/16 15:28:04;;;;;;;1.9;1.3;;;;;;;;;;;;;
2022/09/16 15:30:30;;;;;;;1.3;1.2;;;;;;;;;;;;;
2022/09/16 15:32:55;;;;;;;1.9;1.5;;;;;;;;;;;;;
2022/09/16 15:35:20;;;;;;;1.3;1.2;;;;;;;;;;;;;
2022/09/16 15:37:49;;;;;;;1.3;1.2;;;;;;;;;;;;;
2022/09/16 15:40:14;;;;;;;1.3;1.2;;;;;;;;;;;;;
2022/09/16 15:42:39;;;;;;;1.4;1.1;;;;;;;;;;;;;
2022/09/16 15:45:04;;;;;;;1.5;1.3;;;;;;;;;;;;;
2022/09/16 15:47:29;;;;;;;1.7;1.6;;;;;;;;;;;;;
2022/09/16 15:49:54;;;;;;;1.8;1.5;;;;;;;;;;;;;
2022/09/16 15:52:19;;;;;;;2;1.8;;;;;;;;;;;;;
2022/09/16 15:54:45;;;;;;;1.8;1.7;;;;;;;;;;;;;
2022/09/16 15:57:14;;;;;;;2.3;1.9;;;;;;;;;;;;;
2022/09/16 15:59:38;;;;;;;1.7;1.6;;;;;;;;;;;;;
2022/09/16 16:02:04;;;;;;;1.7;1.6;;;;;;;;;;;;;
2022/09/16 16:04:27;;;;;;;2.3;1.6;;;;;;;;;;;;;
2022/09/16 16:06:52;;;;;;;2.5;1.6;;;;;;;;;;;;;
2022/09/16 16:09:18;;;;;;;2.7;1.8;;;;;;;;;;;;;
2022/09/16 16:11:43;;;;;;;1.9;1.8;;;;;;;;;;;;;
2022/09/16 16:14:08;;;;;;;10.7;7.5;;;;;;;;;;;;;
2022/09/16 16:16:33;;;;;;;3.6;3.3;;;;;;;;;;;;;
2022/09/16 16:18:58;;;;;;;2.1;1.9;;;;;;;;;;;;;
2022/09/16 16:21:24;;;;;;;2.5;1.8;;;;;;;;;;;;;
2022/09/16 16:23:49;;;;;;;2.1;1.9;;;;;;;;;;;;;
2022/09/16 16:26:15;;;;;;;2.1;1.7;;;;;;;;;;;;;
2022/09/16 16:28:40;;;;;;;2.6;2.1;;;;;;;;;;;;;
2022/09/16 16:31:07;;;;;;;2.4;2.2;;;;;;;;;;;;;
2022/09/16 16:33:32;;;;;;;3;2.4;;;;;;;;;;;;;
2022/09/16 16:35:59;;;;;;;2.3;2.1;;;;;;;;;;;;;
2022/09/16 16:38:24;;;;;;;3.2;2.5;;;;;;;;;;;;;
2022/09/16 16:40:50;;;;;;;3.1;2.7;;;;;;;;;;;;;
2022/09/16 16:43:16;;;;;;;2.9;2.6;;;;;;;;;;;;;
2022/09/16 16:45:42;;;;;;;2.7;2.5;;;;;;;;;;;;;
2022/09/16 16:48:07;;;;;;;3.1;2.5;;;;;;;;;;;;;
2022/09/16 16:50:32;;;;;;;3.7;2.7;;;;;;;;;;;;;
2022/09/16 16:52:57;;;;;;;2.5;2.3;;;;;;;;;;;;;
2022/09/16 16:55:24;;;;;;;2.5;2.3;;;;;;;;;;;;;
2022/09/16 16:57:52;;;;;;;3.3;2.5;;;;;;;;;;;;;
2022/09/16 17:00:17;;;;;;;2.7;2.5;;;;;;;;;;;;;
2022/09/16 17:02:43;;;;;;;3.3;2.5;;;;;;;;;;;;;
2022/09/16 17:05:08;;;;;;;5.1;3.1;;;;;;;;;;;;;
2022/09/16 17:07:35;;;;;;;4.2;2.8;;;;;;;;;;;;;
2022/09/16 17:10:01;;;;;;;5.1;3.5;;;;;;;;;;;;;
2022/09/16 17:12:27;;;;;;;4.9;4.1;;;;;;;;;;;;;
2022/09/16 17:14:53;;;;;;;5.6;3.9;;;;;;;;;;;;;
2022/09/16 17:17:18;;;;;;;5.7;4.4;;;;;;;;;;;;;
2022/09/16 17:19:42;;;;;;;3.4;2.9;;;;;;;;;;;;;
2022/09/16 17:22:08;;;;;;;3;2.3;;;;;;;;;;;;;
2022/09/16 17:24:33;;;;;;;2.4;2.2;;;;;;;;;;;;;
2022/09/16 17:26:59;;;;;;;2.9;2.6;;;;;;;;;;;;;
2022/09/16 17:29:23;;;;;;;2.8;2.6;;;;;;;;;;;;;
2022/09/16 17:31:49;;;;;;;3.7;2.9;;;;;;;;;;;;;
2022/09/16 17:34:16;;;;;;;3.7;3;;;;;;;;;;;;;
2022/09/16 17:36:42;;;;;;;2.7;2.4;;;;;;;;;;;;;
2022/09/16 17:39:24;;;;;;;2.8;2.5;;;;;;;;;;;;;
2022/09/16 17:41:32;;;;;;;3.6;2.6;;;;;;;;;;;;;
2022/09/16 17:43:57;;;;;;;3.3;2.7;;;;;;;;;;;;;
2022/09/16 17:46:25;;;;;;;3.3;3;;;;;;;;;;;;;
2022/09/16 17:48:48;;;;;;;4.4;3.2;;;;;;;;;;;;;
2022/09/16 17:51:17;;;;;;;3.9;3.5;;;;;;;;;;;;;
2022/09/16 17:53:42;;;;;;;4.6;4;;;;;;;;;;;;;
2022/09/16 17:56:07;;;;;;;3.6;3.1;;;;;;;;;;;;;
2022/09/16 17:58:32;;;;;;;4.2;3;;;;;;;;;;;;;
2022/09/16 18:00:59;;;;;;;3.2;2.7;;;;;;;;;;;;;
2022/09/16 18:03:24;;;;;;;3.3;2.4;;;;;;;;;;;;;
2022/09/16 18:05:50;;;;;;;3.2;2.6;;;;;;;;;;;;;
2022/09/16 18:08:14;;;;;;;3;2.4;;;;;;;;;;;;;
2022/09/16 18:13:05;;;;;;;2.5;2.3;;;;;;;;;;;;;
2022/09/16 18:15:30;;;;;;;2.6;2.4;;;;;;;;;;;;;
2022/09/16 18:17:55;;;;;;;4.3;2.6;;;;;;;;;;;;;
2022/09/16 18:20:24;;;;;;;3.1;2.6;;;;;;;;;;;;;
2022/09/16 18:22:47;;;;;;;3;2.7;;;;;;;;;;;;;
2022/09/16 18:25:14;;;;;;;2.5;2.3;;;;;;;;;;;;;
2022/09/16 18:27:40;;;;;;;2.8;2.5;;;;;;;;;;;;;
2022/09/16 18:30:10;;;;;;;3.2;2.9;;;;;;;;;;;;;
2022/09/16 18:32:37;;;;;;;3;2.7;;;;;;;;;;;;;
2022/09/16 18:35:02;;;;;;;3;2.7;;;;;;;;;;;;;
2022/09/16 18:37:31;;;;;;;3.5;3.1;;;;;;;;;;;;;
2022/09/16 18:39:59;;;;;;;4.1;3.1;;;;;;;;;;;;;
2022/09/16 18:42:24;;;;;;;3.4;3.1;;;;;;;;;;;;;
2022/09/16 18:44:49;;;;;;;3.2;2.8;;;;;;;;;;;;;
2022/09/16 18:47:14;;;;;;;3.1;2.8;;;;;;;;;;;;;
2022/09/16 18:49:40;;;;;;;3.3;3;;;;;;;;;;;;;
2022/09/16 18:52:05;;;;;;;3.3;3;;;;;;;;;;;;;
2022/09/16 18:54:32;;;;;;;3.4;2.6;;;;;;;;;;;;;
2022/09/16 18:56:56;;;;;;;2.9;2.7;;;;;;;;;;;;;
2022/09/16 18:59:25;;;;;;;2.8;2.6;;;;;;;;;;;;;
2022/09/16 19:01:49;;;;;;;3.4;3.1;;;;;;;;;;;;;
2022/09/16 19:04:14;;;;;;;3.5;3.2;;;;;;;;;;;;;
2022/09/16 19:06:40;;;;;;;3.5;3.1;;;;;;;;;;;;;
2022/09/16 19:09:05;;;;;;;3.9;3.2;;;;;;;;;;;;;
2022/09/16 19:11:30;;;;;;;3.6;3.3;;;;;;;;;;;;;